Jupiter Spirit — A8ZC2 — position and weather

sailwx.info

Track history (hours):
 
Tides and Currents Weather Stations Pressure Air Temp Water Temp Dewpoint Dewpoint Depression Visibility Wind Speed Wind Dir Waves Ship Positions

Jupiter Spirit

Last reported at 2017-May-14 15:39 UTC. Time now 2017-May-28 04:48 UTC.
Position N 33°39' W 121°30'.
Warning: this ship's position is 13 days out of date.

Length 183 m; draft 7.9 m.

Type: Cargo ship. MMSI: 636015173.

Date/timePositionNaut miles runAvg speedWind from/ knotsBaromVisibWave heightAir tempDewpointWater temp
2017-May-14 15:39N 33°39' W 121°30'213.7
2017-May-14 15:30N 33°39' W 121°28'713.8
2017-May-14 15:00N 33°39' W 121°19'713.6
2017-May-14 14:30N 33°39' W 121°11'1313.3
2017-May-14 13:30N 33°39' W 120°55'713.4
2017-May-14 13:00N 33°39' W 120°47'713.1
2017-May-14 12:30N 33°39' W 120°39'713.0
2017-May-14 12:00N 33°38' W 120°31'612.7
2017-May-14 11:31N 33°38' W 120°24'813.1
2017-May-14 10:55N 33°38' W 120°15'513.4
2017-May-14 10:30N 33°38' W 120°08'714.3
2017-May-14 10:00N 33°38' W 119°59'714.3
2017-May-14 09:30N 33°38' W 119°51'714.8
2017-May-14 09:01N 33°38' W 119°42'714.5
2017-May-14 08:30N 33°38' W 119°33'714.7
2017-May-14 08:01N 33°39' W 119°24'815.4
2017-May-14 07:30N 33°39' W 119°15'814.8
2017-May-14 06:59N 33°38' W 119°06'511.6
2017-May-14 06:30N 33°38' W 118°59'611.7
2017-May-14 06:00N 33°38' W 118°52'611.7
2017-May-14 05:30N 33°38' W 118°45'612.0
2017-May-14 05:00N 33°38' W 118°38'611.7
2017-May-14 04:30N 33°38' W 118°31'611.8
2017-May-14 04:01N 33°38' W 118°24'510.9
2017-May-14 03:31N 33°38' W 118°17'4 8.0
2017-May-14 03:00N 33°42' W 118°15'3 6.2
2017-May-14 02:31N 33°44' W 118°17'2 3.2
2017-May-14 01:54N 33°46' W 118°15'0 0.0
2017-May-14 01:24N 33°46' W 118°15'0 0.0
2017-May-14 00:24N 33°46' W 118°15'0 0.0
2017-May-13 23:36N 33°46' W 118°15'0 0.0
2017-May-13 23:30N 33°46' W 118°15'4 0.3
2017-May-13 12:00N 33°42' W 118°15'5 8.4
2017-May-13 11:25N 33°38' W 118°15'3 7.8
2017-May-13 11:00N 33°36' W 118°19'4 9.1
2017-May-13 10:30N 33°36' W 118°24'510.0
2017-May-13 10:00N 33°37' W 118°30'611.4
2017-May-13 09:30N 33°36' W 118°37'611.3
2017-May-13 09:00N 33°36' W 118°44'611.6
2017-May-13 08:30N 33°36' W 118°51'611.4
2017-May-13 08:00N 33°37' W 118°58'611.6
2017-May-13 07:30N 33°37' W 119°05'714.9
2017-May-13 07:00N 33°37' W 119°14'714.8
2017-May-13 06:30N 33°36' W 119°22'714.0
2017-May-13 06:01N 33°35' W 119°31'714.7
2017-May-13 05:31N 33°35' W 119°39'815.3
2017-May-13 05:00N 33°36' W 119°49'714.9
2017-May-13 04:30N 33°37' W 119°58'815.5
2017-May-13 04:00N 33°37' W 120°07'815.4
2017-May-13 03:30N 33°37' W 120°16'714.9
2017-May-13 03:01N 33°37' W 120°25'815.5
2017-May-13 02:30N 33°38' W 120°34'816.0
2017-May-13 02:00N 33°38' W 120°44'815.6
2017-May-13 01:30N 33°38' W 120°53'816.0
2017-May-13 01:01N 33°38' W 121°03'815.3
2017-May-13 00:30N 33°38' W 121°12'3 5.4
2017-May-13 00:01N 33°38' W 121°15'815.5
2017-May-12 23:30N 33°38' W 121°25'816.2
2017-May-12 22:59N 33°38' W 121°35'816.1
2017-May-12 22:30N 33°39' W 121°44'816.0
2017-May-12 22:00N 33°39' W 121°54'  
Track history (hours):
 
Tides and Currents Weather Stations Pressure Air Temp Water Temp Dewpoint Dewpoint Depression Visibility Wind Speed Wind Dir Waves Ship Positions

Jupiter Spirit

Last reported at 2017-May-14 15:39 UTC. Time now 2017-May-28 04:48 UTC.
Position N 33°39' W 121°30'.
Warning: this ship's position is 13 days out of date.

Length 183 m; draft 7.9 m.

Type: Cargo ship. MMSI: 636015173.

Date/timePositionNaut miles runAvg speedWind from/ knotsBaromVisibWave heightAir tempDewpointWater temp
2017-May-14 15:39N 33°39' W 121°30'213.7
2017-May-14 15:30N 33°39' W 121°28'713.8
2017-May-14 15:00N 33°39' W 121°19'713.6
2017-May-14 14:30N 33°39' W 121°11'1313.3
2017-May-14 13:30N 33°39' W 120°55'713.4
2017-May-14 13:00N 33°39' W 120°47'713.1
2017-May-14 12:30N 33°39' W 120°39'713.0
2017-May-14 12:00N 33°38' W 120°31'612.7
2017-May-14 11:31N 33°38' W 120°24'813.1
2017-May-14 10:55N 33°38' W 120°15'513.4
2017-May-14 10:30N 33°38' W 120°08'714.3
2017-May-14 10:00N 33°38' W 119°59'714.3
2017-May-14 09:30N 33°38' W 119°51'714.8
2017-May-14 09:01N 33°38' W 119°42'714.5
2017-May-14 08:30N 33°38' W 119°33'714.7
2017-May-14 08:01N 33°39' W 119°24'815.4
2017-May-14 07:30N 33°39' W 119°15'814.8
2017-May-14 06:59N 33°38' W 119°06'511.6
2017-May-14 06:30N 33°38' W 118°59'611.7
2017-May-14 06:00N 33°38' W 118°52'611.7
2017-May-14 05:30N 33°38' W 118°45'612.0
2017-May-14 05:00N 33°38' W 118°38'611.7
2017-May-14 04:30N 33°38' W 118°31'611.8
2017-May-14 04:01N 33°38' W 118°24'510.9
2017-May-14 03:31N 33°38' W 118°17'4 8.0
2017-May-14 03:00N 33°42' W 118°15'3 6.2
2017-May-14 02:31N 33°44' W 118°17'2 3.2
2017-May-14 01:54N 33°46' W 118°15'0 0.0
2017-May-14 01:24N 33°46' W 118°15'0 0.0
2017-May-14 00:24N 33°46' W 118°15'0 0.0
2017-May-13 23:36N 33°46' W 118°15'0 0.0
2017-May-13 23:30N 33°46' W 118°15'4 0.3
2017-May-13 12:00N 33°42' W 118°15'5 8.4
2017-May-13 11:25N 33°38' W 118°15'3 7.8
2017-May-13 11:00N 33°36' W 118°19'4 9.1
2017-May-13 10:30N 33°36' W 118°24'510.0
2017-May-13 10:00N 33°37' W 118°30'611.4
2017-May-13 09:30N 33°36' W 118°37'611.3
2017-May-13 09:00N 33°36' W 118°44'611.6
2017-May-13 08:30N 33°36' W 118°51'611.4
2017-May-13 08:00N 33°37' W 118°58'611.6
2017-May-13 07:30N 33°37' W 119°05'714.9
2017-May-13 07:00N 33°37' W 119°14'714.8
2017-May-13 06:30N 33°36' W 119°22'714.0
2017-May-13 06:01N 33°35' W 119°31'714.7
2017-May-13 05:31N 33°35' W 119°39'815.3
2017-May-13 05:00N 33°36' W 119°49'714.9
2017-May-13 04:30N 33°37' W 119°58'815.5
2017-May-13 04:00N 33°37' W 120°07'815.4
2017-May-13 03:30N 33°37' W 120°16'714.9
2017-May-13 03:01N 33°37' W 120°25'815.5
2017-May-13 02:30N 33°38' W 120°34'816.0
2017-May-13 02:00N 33°38' W 120°44'815.6
2017-May-13 01:30N 33°38' W 120°53'816.0
2017-May-13 01:01N 33°38' W 121°03'815.3
2017-May-13 00:30N 33°38' W 121°12'3 5.4
2017-May-13 00:01N 33°38' W 121°15'815.5
2017-May-12 23:30N 33°38' W 121°25'816.2
2017-May-12 22:59N 33°38' W 121°35'816.1
2017-May-12 22:30N 33°39' W 121°44'816.0
2017-May-12 22:00N 33°39' W 121°54'  

Dump ship's entire track history